Time;durP1;ratioP1;P1;durP2;ratioP2;P2;SDS_P1;SDS_P2;PMS_P1;PMS_P2;Temp;Humidity;BMP_temperature;BMP_pressure;BME280_temperature;BME280_humidity;BME280_pressure;Samples;Min_cycle;Max_cycle;Signal;HPM_P1;HPM_P2
2023/06/20 00:01:54;;;;;;;8.82;6.80;;;;;;;;;;4997902;28;20396;-65
2023/06/20 00:04:21;;;;;;;8.80;7.07;;;;;;;;;;5001741;28;20488;-64
2023/06/20 00:06:47;;;;;;;9.75;6.97;;;;;;;;;;4995495;28;20042;-65
2023/06/20 00:09:13;;;;;;;9.23;6.88;;;;;;;;;;4998891;28;20575;-65
2023/06/20 00:11:39;;;;;;;8.32;6.53;;;;;;;;;;4997748;28;20031;-66
2023/06/20 00:14:05;;;;;;;8.43;6.95;;;;;;;;;;5000482;28;20050;-66
2023/06/20 00:16:31;;;;;;;9.85;6.72;;;;;;;;;;5002525;28;20029;-66
2023/06/20 00:18:58;;;;;;;8.35;6.70;;;;;;;;;;4996052;28;20401;-66
2023/06/20 00:21:26;;;;;;;9.30;6.43;;;;;;;;;;5002576;28;20049;-66
2023/06/20 00:23:56;;;;;;;8.77;7.07;;;;;;;;;;5006193;28;20041;-66
2023/06/20 00:26:22;;;;;;;8.13;6.63;;;;;;;;;;4997086;28;20130;-65
2023/06/20 00:28:51;;;;;;;10.77;6.78;;;;;;;;;;5001668;28;20045;-65
2023/06/20 00:31:17;;;;;;;9.30;6.47;;;;;;;;;;5008463;28;20337;-65
2023/06/20 00:33:44;;;;;;;8.48;6.70;;;;;;;;;;5001412;28;20053;-65
2023/06/20 00:36:12;;;;;;;9.07;6.93;;;;;;;;;;5003405;28;20391;-65
2023/06/20 00:38:38;;;;;;;10.27;7.25;;;;;;;;;;5010194;28;20054;-64
2023/06/20 00:41:05;;;;;;;8.48;6.68;;;;;;;;;;5008366;28;20053;-67
2023/06/20 00:43:31;;;;;;;13.38;6.97;;;;;;;;;;4997966;28;20061;-67
2023/06/20 00:45:58;;;;;;;9.05;6.88;;;;;;;;;;5000089;28;20034;-68
2023/06/20 00:48:24;;;;;;;11.15;6.88;;;;;;;;;;5000730;28;20046;-68
2023/06/20 00:50:51;;;;;;;9.85;7.15;;;;;;;;;;5000770;28;20069;-71
2023/06/20 00:53:18;;;;;;;7.78;6.93;;;;;;;;;;4994774;28;20033;-69
2023/06/20 00:55:45;;;;;;;8.82;6.78;;;;;;;;;;4998102;28;20038;-68
2023/06/20 00:58:11;;;;;;;9.05;7.15;;;;;;;;;;5010057;28;20057;-68
2023/06/20 01:00:38;;;;;;;10.60;6.65;;;;;;;;;;5002087;28;20038;-68
2023/06/20 01:03:14;;;;;;;10.63;7.32;;;;;;;;;;4993268;28;20030;-68
2023/06/20 01:05:44;;;;;;;11.02;6.53;;;;;;;;;;4996117;28;20026;-68
2023/06/20 01:08:14;;;;;;;9.23;6.47;;;;;;;;;;5015368;28;20049;-70
2023/06/20 01:10:56;;;;;;;10.18;6.60;;;;;;;;;;5003076;28;20046;-67
2023/06/20 01:13:54;;;;;;;10.27;6.38;;;;;;;;;;4997387;28;20038;-69
2023/06/20 01:16:38;;;;;;;9.70;6.03;;;;;;;;;;4994397;28;20057;-68
2023/06/20 01:19:36;;;;;;;12.10;5.90;;;;;;;;;;4988420;28;20064;-68
2023/06/20 01:22:07;;;;;;;;;;;;;;;;;;4992236;28;20042;-68
2023/06/20 01:24:48;;;;;;;8.38;5.03;;;;;;;;;;5003219;28;19913;-68
2023/06/20 01:27:27;;;;;;;9.63;5.95;;;;;;;;;;5011378;28;20068;-68
2023/06/20 01:30:14;;;;;;;6.22;5.10;;;;;;;;;;4993677;28;20038;-68
2023/06/20 01:32:46;;;;;;;9.32;5.10;;;;;;;;;;5000294;28;20045;-68
2023/06/20 01:35:21;;;;;;;7.50;4.90;;;;;;;;;;4999762;28;20034;-68
2023/06/20 01:37:57;;;;;;;6.90;4.80;;;;;;;;;;5021084;28;20503;-67
2023/06/20 01:40:25;;;;;;;7.38;5.00;;;;;;;;;;5001804;28;20442;-68
2023/06/20 01:42:56;;;;;;;7.50;4.85;;;;;;;;;;4998300;28;20503;-68
2023/06/20 01:45:23;;;;;;;9.57;5.72;;;;;;;;;;4993499;28;20046;-68
2023/06/20 01:47:51;;;;;;;8.85;5.82;;;;;;;;;;4998828;28;20411;-68
2023/06/20 01:50:19;;;;;;;7.72;5.10;;;;;;;;;;4996334;28;20034;-67
2023/06/20 01:52:47;;;;;;;7.50;5.22;;;;;;;;;;4992524;28;20388;-68
2023/06/20 01:55:14;;;;;;;7.32;4.88;;;;;;;;;;5003601;28;20034;-68
2023/06/20 01:57:41;;;;;;;8.32;5.03;;;;;;;;;;5001072;28;20030;-68
2023/06/20 02:00:09;;;;;;;11.05;4.70;;;;;;;;;;4978912;28;20053;-69
2023/06/20 02:02:40;;;;;;;6.50;4.88;;;;;;;;;;4994955;28;20054;-68
2023/06/20 02:05:09;;;;;;;5.78;4.50;;;;;;;;;;4999794;28;20037;-70
2023/06/20 02:07:37;;;;;;;5.38;4.38;;;;;;;;;;5011151;28;20036;-67
2023/06/20 02:10:04;;;;;;;6.93;4.50;;;;;;;;;;5004159;28;20419;-68
2023/06/20 02:12:31;;;;;;;8.50;4.07;;;;;;;;;;5006744;28;20030;-66
2023/06/20 02:14:58;;;;;;;6.38;3.45;;;;;;;;;;4998828;28;20037;-68
2023/06/20 02:17:31;;;;;;;6.43;3.10;;;;;;;;;;5005542;28;20040;-67
2023/06/20 02:19:57;;;;;;;4.80;3.03;;;;;;;;;;4995933;28;20535;-67
2023/06/20 02:22:25;;;;;;;5.38;2.88;;;;;;;;;;5006904;28;20040;-68
2023/06/20 02:24:54;;;;;;;4.55;2.55;;;;;;;;;;5001328;28;20029;-67
2023/06/20 02:27:22;;;;;;;4.50;2.87;;;;;;;;;;5000013;28;20042;-68
2023/06/20 02:29:51;;;;;;;3.88;3.05;;;;;;;;;;5005352;28;20301;-67
2023/06/20 02:32:19;;;;;;;6.22;2.83;;;;;;;;;;4993537;28;20041;-67
2023/06/20 02:34:47;;;;;;;4.70;3.10;;;;;;;;;;5007732;28;20511;-65
2023/06/20 02:37:14;;;;;;;3.60;2.70;;;;;;;;;;5001367;28;20053;-67
2023/06/20 02:39:40;;;;;;;3.38;2.67;;;;;;;;;;5001866;28;20057;-67
2023/06/20 02:42:07;;;;;;;4.05;2.30;;;;;;;;;;5004236;28;20049;-67
2023/06/20 02:44:33;;;;;;;2.95;2.10;;;;;;;;;;4992311;28;20046;-66
2023/06/20 02:47:21;;;;;;;5.10;2.50;;;;;;;;;;4997353;28;20049;-67
2023/06/20 02:50:03;;;;;;;4.00;2.20;;;;;;;;;;4995961;28;20581;-68
2023/06/20 02:52:35;;;;;;;3.30;2.28;;;;;;;;;;4988138;28;20067;-67
2023/06/20 02:55:34;;;;;;;3.92;2.38;;;;;;;;;;4992527;28;20033;-67
2023/06/20 02:58:10;;;;;;;4.50;2.60;;;;;;;;;;4998679;28;20050;-67
2023/06/20 03:00:37;;;;;;;3.58;2.45;;;;;;;;;;5000496;28;20061;-67
2023/06/20 03:03:11;;;;;;;5.28;2.20;;;;;;;;;;5007221;28;20385;-67
2023/06/20 03:05:42;;;;;;;6.03;2.30;;;;;;;;;;4994848;28;20038;-70
2023/06/20 03:08:09;;;;;;;2.40;1.60;;;;;;;;;;4998644;28;20495;-66
2023/06/20 03:10:36;;;;;;;2.30;1.58;;;;;;;;;;5004926;28;20423;-66
2023/06/20 03:13:04;;;;;;;3.13;1.77;;;;;;;;;;5002765;28;20488;-65
2023/06/20 03:15:30;;;;;;;2.55;1.75;;;;;;;;;;5006281;28;20533;-65
2023/06/20 03:18:01;;;;;;;2.75;1.52;;;;;;;;;;5004665;28;20038;-66
2023/06/20 03:20:28;;;;;;;3.90;1.38;;;;;;;;;;5005176;28;20057;-65
2023/06/20 03:22:55;;;;;;;2.78;1.30;;;;;;;;;;5004307;28;20046;-68
2023/06/20 03:25:21;;;;;;;5.90;1.55;;;;;;;;;;4999616;28;20054;-64
2023/06/20 03:27:48;;;;;;;2.25;1.50;;;;;;;;;;4998559;28;20064;-66
2023/06/20 03:30:15;;;;;;;3.72;1.30;;;;;;;;;;5001206;28;20472;-65
2023/06/20 03:32:46;;;;;;;2.47;1.40;;;;;;;;;;4999984;28;20046;-65
2023/06/20 03:35:12;;;;;;;2.75;1.30;;;;;;;;;;5006390;28;20045;-65
2023/06/20 03:37:38;;;;;;;2.97;1.80;;;;;;;;;;5020937;28;20042;-65
2023/06/20 03:40:05;;;;;;;4.38;1.27;;;;;;;;;;5008090;28;20483;-66
2023/06/20 03:42:35;;;;;;;2.20;1.17;;;;;;;;;;5007567;28;20057;-65
2023/06/20 03:45:01;;;;;;;2.67;1.02;;;;;;;;;;5010291;28;20041;-67
2023/06/20 03:47:28;;;;;;;1.85;1.35;;;;;;;;;;5015095;28;20053;-66
2023/06/20 03:49:55;;;;;;;4.70;1.60;;;;;;;;;;5012963;28;20476;-65
2023/06/20 03:52:21;;;;;;;2.78;1.48;;;;;;;;;;4997108;28;20457;-65
2023/06/20 03:54:47;;;;;;;4.90;1.40;;;;;;;;;;5010178;28;20759;-65
2023/06/20 03:57:14;;;;;;;8.32;2.80;;;;;;;;;;5004068;28;20034;-66
2023/06/20 03:59:41;;;;;;;4.72;2.28;;;;;;;;;;4999563;28;20049;-65
2023/06/20 04:02:07;;;;;;;5.25;2.10;;;;;;;;;;5000696;28;20135;-65
2023/06/20 04:04:33;;;;;;;3.75;1.95;;;;;;;;;;5004750;28;20065;-66
2023/06/20 04:07:00;;;;;;;4.95;2.10;;;;;;;;;;5002987;28;20559;-67
2023/06/20 04:09:26;;;;;;;6.75;2.38;;;;;;;;;;5001353;28;20040;-64
2023/06/20 04:11:53;;;;;;;5.60;2.47;;;;;;;;;;5002717;28;20026;-65
2023/06/20 04:14:20;;;;;;;5.75;2.72;;;;;;;;;;5006130;28;20030;-65
2023/06/20 04:16:49;;;;;;;5.93;3.10;;;;;;;;;;5006590;28;20070;-68
2023/06/20 04:19:16;;;;;;;7.88;2.95;;;;;;;;;;4997997;28;20030;-66
2023/06/20 04:21:45;;;;;;;6.47;2.80;;;;;;;;;;5004266;28;20521;-65
2023/06/20 04:24:11;;;;;;;5.60;2.75;;;;;;;;;;5002333;28;20042;-65
2023/06/20 04:26:37;;;;;;;7.13;2.63;;;;;;;;;;5001176;28;20034;-64
2023/06/20 04:29:04;;;;;;;8.25;3.88;;;;;;;;;;4998554;28;20400;-65
2023/06/20 04:31:33;;;;;;;4.30;2.75;;;;;;;;;;5001956;28;20344;-65
2023/06/20 04:33:59;;;;;;;8.68;2.80;;;;;;;;;;5004853;28;20495;-64
2023/06/20 04:36:28;;;;;;;6.15;2.78;;;;;;;;;;4999156;28;20038;-65
2023/06/20 04:38:57;;;;;;;8.32;2.80;;;;;;;;;;5006947;28;20034;-66
2023/06/20 04:41:23;;;;;;;4.65;2.88;;;;;;;;;;5010426;28;20049;-63
2023/06/20 04:43:51;;;;;;;5.88;3.30;;;;;;;;;;5002361;28;20069;-65
2023/06/20 04:46:17;;;;;;;4.78;2.97;;;;;;;;;;5004190;28;20030;-65
2023/06/20 04:48:45;;;;;;;5.55;2.65;;;;;;;;;;5004580;28;20042;-64
2023/06/20 04:51:13;;;;;;;4.93;2.55;;;;;;;;;;5001351;28;20046;-65
2023/06/20 04:53:41;;;;;;;4.07;2.50;;;;;;;;;;5006079;28;20053;-66
2023/06/20 04:56:08;;;;;;;4.38;2.67;;;;;;;;;;5005844;28;20037;-66
2023/06/20 04:58:34;;;;;;;4.90;2.92;;;;;;;;;;4981411;28;20046;-64
2023/06/20 05:01:00;;;;;;;6.40;2.90;;;;;;;;;;5000318;28;20035;-64
2023/06/20 05:03:27;;;;;;;6.25;2.80;;;;;;;;;;4998239;28;20061;-63
2023/06/20 05:05:54;;;;;;;6.00;3.42;;;;;;;;;;5001096;28;20046;-63
2023/06/20 05:08:20;;;;;;;7.82;3.55;;;;;;;;;;4994448;28;20030;-64
2023/06/20 05:10:48;;;;;;;7.63;4.03;;;;;;;;;;4995167;28;20042;-64
2023/06/20 05:13:14;;;;;;;7.43;3.53;;;;;;;;;;4999976;28;20038;-67
2023/06/20 05:15:41;;;;;;;6.78;3.38;;;;;;;;;;4999940;28;20049;-64
2023/06/20 05:18:07;;;;;;;8.63;3.67;;;;;;;;;;5000935;28;20425;-63
2023/06/20 05:20:33;;;;;;;6.32;3.08;;;;;;;;;;5000170;28;20076;-64
2023/06/20 05:22:59;;;;;;;9.80;3.63;;;;;;;;;;4998902;28;20042;-65
2023/06/20 05:25:25;;;;;;;9.05;3.83;;;;;;;;;;5009339;28;20042;-63
2023/06/20 05:27:51;;;;;;;7.40;4.22;;;;;;;;;;5001959;28;20037;-64
2023/06/20 05:30:18;;;;;;;7.60;3.97;;;;;;;;;;5003515;28;21748;-66
2023/06/20 05:32:44;;;;;;;6.20;4.10;;;;;;;;;;4998885;28;20053;-64
2023/06/20 05:35:11;;;;;;;7.90;4.15;;;;;;;;;;5002200;28;20041;-63
2023/06/20 05:37:37;;;;;;;8.80;4.43;;;;;;;;;;5002607;28;20052;-63
2023/06/20 05:40:06;;;;;;;8.02;4.20;;;;;;;;;;5008532;28;20431;-63
2023/06/20 05:42:33;;;;;;;10.23;4.63;;;;;;;;;;5011405;28;20046;-64
2023/06/20 05:44:59;;;;;;;8.98;4.82;;;;;;;;;;5002928;28;20475;-65
2023/06/20 05:47:25;;;;;;;9.90;4.57;;;;;;;;;;5000953;28;20859;-63
2023/06/20 05:49:51;;;;;;;7.43;4.32;;;;;;;;;;5000944;28;20613;-64
2023/06/20 05:52:19;;;;;;;8.25;4.78;;;;;;;;;;5000528;28;20042;-64
2023/06/20 05:54:46;;;;;;;7.57;4.70;;;;;;;;;;5006707;28;20060;-65
2023/06/20 05:57:12;;;;;;;10.60;4.93;;;;;;;;;;5000005;28;20041;-63
2023/06/20 05:59:38;;;;;;;9.18;4.88;;;;;;;;;;4997558;28;20069;-65
2023/06/20 06:02:05;;;;;;;10.02;5.07;;;;;;;;;;5001847;28;20049;-64
2023/06/20 06:04:33;;;;;;;11.50;4.90;;;;;;;;;;5004504;28;20053;-65
2023/06/20 06:06:59;;;;;;;9.35;4.65;;;;;;;;;;5004503;28;20045;-64
2023/06/20 06:09:25;;;;;;;10.48;5.90;;;;;;;;;;4997699;28;20045;-63
2023/06/20 06:11:52;;;;;;;8.43;4.70;;;;;;;;;;4998327;28;20054;-64
2023/06/20 06:14:18;;;;;;;7.38;4.40;;;;;;;;;;4999243;28;20053;-64
2023/06/20 06:16:44;;;;;;;9.98;5.10;;;;;;;;;;5010261;28;20041;-63
2023/06/20 06:19:10;;;;;;;10.18;5.07;;;;;;;;;;5005446;28;20038;-66
2023/06/20 06:21:37;;;;;;;12.00;4.95;;;;;;;;;;4996634;28;20043;-63
2023/06/20 06:24:04;;;;;;;16.52;5.35;;;;;;;;;;5000140;28;20399;-64
2023/06/20 06:26:30;;;;;;;13.95;5.32;;;;;;;;;;4994931;28;20605;-64
2023/06/20 06:28:56;;;;;;;9.02;4.65;;;;;;;;;;4997931;28;20033;-65
2023/06/20 06:31:27;;;;;;;9.02;4.90;;;;;;;;;;4998030;28;20420;-63
2023/06/20 06:33:54;;;;;;;8.43;4.80;;;;;;;;;;4996537;28;20049;-64
2023/06/20 06:36:21;;;;;;;11.25;4.80;;;;;;;;;;4997266;28;20038;-63
2023/06/20 06:38:51;;;;;;;12.25;5.22;;;;;;;;;;4997472;28;20117;-65
2023/06/20 06:41:18;;;;;;;8.63;5.50;;;;;;;;;;5005256;28;20045;-64
2023/06/20 06:43:44;;;;;;;11.75;5.40;;;;;;;;;;4998743;28;20415;-63
2023/06/20 06:46:11;;;;;;;10.07;5.28;;;;;;;;;;5005118;28;20435;-64
2023/06/20 06:48:38;;;;;;;11.48;5.32;;;;;;;;;;4997590;28;20058;-64
2023/06/20 06:51:04;;;;;;;13.43;5.75;;;;;;;;;;5003278;28;20053;-64
2023/06/20 06:53:31;;;;;;;17.17;5.38;;;;;;;;;;4999122;28;20033;-66
2023/06/20 06:55:57;;;;;;;11.02;5.38;;;;;;;;;;5000351;28;20046;-64
2023/06/20 06:58:23;;;;;;;9.27;5.15;;;;;;;;;;5002361;28;20045;-65
2023/06/20 07:00:49;;;;;;;13.43;5.70;;;;;;;;;;4989216;28;20042;-64
2023/06/20 07:03:15;;;;;;;16.67;5.43;;;;;;;;;;4994324;28;20046;-65
2023/06/20 07:05:41;;;;;;;10.15;5.07;;;;;;;;;;4990960;28;20046;-65
2023/06/20 07:08:08;;;;;;;12.32;5.28;;;;;;;;;;4995968;28;20061;-67
2023/06/20 07:10:35;;;;;;;14.38;5.90;;;;;;;;;;4997495;28;20412;-66
2023/06/20 07:13:05;;;;;;;13.85;5.63;;;;;;;;;;4997961;28;20049;-66
2023/06/20 07:15:33;;;;;;;12.00;6.00;;;;;;;;;;5003487;28;20053;-66
2023/06/20 07:18:00;;;;;;;13.00;5.97;;;;;;;;;;5003989;28;20053;-65
2023/06/20 07:20:27;;;;;;;13.02;5.90;;;;;;;;;;4991081;28;20042;-64
2023/06/20 07:22:54;;;;;;;16.55;6.25;;;;;;;;;;4993857;28;20037;-65
2023/06/20 07:25:20;;;;;;;13.52;6.15;;;;;;;;;;4993375;28;20033;-65
2023/06/20 07:27:47;;;;;;;11.38;6.15;;;;;;;;;;4992635;28;20041;-66
2023/06/20 07:30:14;;;;;;;12.88;6.45;;;;;;;;;;5013758;28;20038;-66
2023/06/20 07:32:40;;;;;;;12.75;6.40;;;;;;;;;;4999660;28;20038;-66
2023/06/20 07:35:06;;;;;;;11.43;5.80;;;;;;;;;;5017651;28;20037;-65
2023/06/20 07:37:33;;;;;;;11.77;5.57;;;;;;;;;;5001829;28;20033;-65
2023/06/20 07:39:59;;;;;;;15.10;6.40;;;;;;;;;;5006590;28;20042;-67
2023/06/20 07:42:25;;;;;;;10.23;6.28;;;;;;;;;;5004597;28;20026;-64
2023/06/20 07:44:51;;;;;;;13.23;6.13;;;;;;;;;;5022098;28;20411;-65
2023/06/20 07:47:18;;;;;;;14.93;6.45;;;;;;;;;;5008194;28;20041;-66
2023/06/20 07:49:44;;;;;;;13.40;6.45;;;;;;;;;;5001296;28;20058;-66
2023/06/20 07:52:10;;;;;;;11.75;6.22;;;;;;;;;;5004239;28;20030;-66
2023/06/20 07:54:37;;;;;;;11.52;6.53;;;;;;;;;;5012571;28;20041;-67
2023/06/20 07:57:03;;;;;;;12.57;6.45;;;;;;;;;;5002994;28;20380;-66
2023/06/20 07:59:29;;;;;;;19.88;6.80;;;;;;;;;;5019000;28;20053;-65
2023/06/20 08:01:55;;;;;;;11.02;5.97;;;;;;;;;;5011594;28;20053;-65
2023/06/20 08:04:22;;;;;;;13.60;6.43;;;;;;;;;;5007935;28;20049;-66
2023/06/20 08:06:48;;;;;;;13.10;6.32;;;;;;;;;;5024366;28;20038;-65
2023/06/20 08:09:14;;;;;;;12.45;6.78;;;;;;;;;;5024349;28;20522;-66
2023/06/20 08:11:40;;;;;;;12.05;6.40;;;;;;;;;;5006394;28;20538;-65
2023/06/20 08:14:06;;;;;;;12.55;6.60;;;;;;;;;;5004154;28;20053;-66
2023/06/20 08:16:33;;;;;;;14.10;6.50;;;;;;;;;;4994530;28;20041;-66
2023/06/20 08:18:59;;;;;;;13.57;7.00;;;;;;;;;;5000253;28;20407;-66
2023/06/20 08:21:25;;;;;;;14.00;6.60;;;;;;;;;;5004716;28;20130;-65
2023/06/20 08:23:51;;;;;;;12.40;7.03;;;;;;;;;;5003019;28;20073;-67
2023/06/20 08:26:17;;;;;;;17.77;7.22;;;;;;;;;;5011171;28;20403;-64
2023/06/20 08:28:43;;;;;;;14.43;7.45;;;;;;;;;;5020519;28;20038;-66
2023/06/20 08:31:10;;;;;;;14.55;6.95;;;;;;;;;;5019985;28;20049;-67
2023/06/20 08:33:36;;;;;;;12.90;7.18;;;;;;;;;;5013090;28;20046;-66
2023/06/20 08:36:02;;;;;;;10.88;7.00;;;;;;;;;;5022082;28;20396;-67
2023/06/20 08:38:28;;;;;;;14.80;7.00;;;;;;;;;;5013984;28;20064;-66
2023/06/20 08:40:55;;;;;;;14.70;7.75;;;;;;;;;;5005568;28;20033;-65
2023/06/20 08:43:21;;;;;;;16.08;6.70;;;;;;;;;;5001175;28;20400;-65
2023/06/20 08:45:47;;;;;;;16.67;7.40;;;;;;;;;;5000515;28;20054;-66
2023/06/20 08:48:14;;;;;;;13.88;7.15;;;;;;;;;;4996160;28;20428;-69
2023/06/20 08:50:40;;;;;;;16.20;8.25;;;;;;;;;;4994999;28;20042;-66
2023/06/20 08:53:09;;;;;;;18.10;8.32;;;;;;;;;;4996698;28;20057;-67
2023/06/20 08:55:36;;;;;;;13.45;7.18;;;;;;;;;;4993661;28;20034;-65
2023/06/20 08:58:07;;;;;;;13.63;7.63;;;;;;;;;;4996500;28;20037;-67
2023/06/20 09:00:33;;;;;;;13.45;7.68;;;;;;;;;;4999988;28;20042;-67
2023/06/20 09:02:59;;;;;;;17.55;8.50;;;;;;;;;;4993854;28;20054;-65
2023/06/20 09:05:30;;;;;;;10.35;7.07;;;;;;;;;;4994869;28;20056;-66
2023/06/20 09:07:57;;;;;;;14.77;6.97;;;;;;;;;;4996430;28;20045;-66
2023/06/20 09:10:24;;;;;;;13.50;7.30;;;;;;;;;;4995084;28;20045;-65
2023/06/20 09:12:56;;;;;;;17.42;7.65;;;;;;;;;;5002111;28;20050;-66
2023/06/20 09:15:25;;;;;;;14.38;7.30;;;;;;;;;;4997793;28;20411;-66
2023/06/20 09:17:53;;;;;;;15.02;8.65;;;;;;;;;;4998507;28;20068;-67
2023/06/20 09:20:20;;;;;;;14.48;7.82;;;;;;;;;;4996043;28;20051;-67
2023/06/20 09:22:46;;;;;;;14.77;7.80;;;;;;;;;;4996609;28;20046;-66
2023/06/20 09:25:18;;;;;;;13.23;7.65;;;;;;;;;;5004481;28;20034;-67
2023/06/20 09:27:44;;;;;;;15.80;8.02;;;;;;;;;;4999454;28;20030;-66
2023/06/20 09:30:10;;;;;;;16.85;8.35;;;;;;;;;;5008200;28;20069;-66
2023/06/20 09:32:40;;;;;;;15.82;7.95;;;;;;;;;;5006539;28;20050;-66
2023/06/20 09:35:08;;;;;;;16.77;8.60;;;;;;;;;;5003904;28;20070;-66
2023/06/20 09:37:37;;;;;;;18.45;8.18;;;;;;;;;;5014974;28;20045;-69
2023/06/20 09:40:35;;;;;;;16.73;7.80;;;;;;;;;;5012515;28;20037;-67
2023/06/20 09:43:03;;;;;;;14.65;7.72;;;;;;;;;;4997378;28;20046;-67
2023/06/20 09:45:29;;;;;;;14.05;8.27;;;;;;;;;;5012206;28;20680;-68
2023/06/20 09:47:57;;;;;;;13.13;7.72;;;;;;;;;;5013541;28;20049;-68
2023/06/20 09:50:24;;;;;;;11.77;7.65;;;;;;;;;;5018929;28;20041;-67
2023/06/20 09:53:08;;;;;;;15.50;7.35;;;;;;;;;;5002971;28;20049;-67
2023/06/20 09:55:35;;;;;;;13.77;7.45;;;;;;;;;;5006666;28;20133;-67
2023/06/20 09:58:03;;;;;;;13.27;7.80;;;;;;;;;;5001698;28;20053;-67
2023/06/20 10:00:31;;;;;;;13.85;8.18;;;;;;;;;;4994978;28;20694;-68
2023/06/20 10:03:01;;;;;;;16.07;9.30;;;;;;;;;;5004618;28;20026;-66
2023/06/20 10:05:28;;;;;;;11.73;8.27;;;;;;;;;;5003212;28;20671;-68
2023/06/20 10:08:03;;;;;;;12.38;7.40;;;;;;;;;;4999830;28;20052;-65
2023/06/20 10:10:29;;;;;;;14.85;7.68;;;;;;;;;;5004805;28;20503;-67
2023/06/20 10:12:56;;;;;;;13.88;8.27;;;;;;;;;;4999636;28;20644;-67
2023/06/20 10:15:23;;;;;;;14.55;7.78;;;;;;;;;;5000099;28;20038;-65
2023/06/20 10:17:49;;;;;;;14.00;7.90;;;;;;;;;;4993815;28;20049;-67
2023/06/20 10:20:37;;;;;;;14.95;8.20;;;;;;;;;;4998626;28;20045;-68
2023/06/20 10:23:05;;;;;;;15.05;8.00;;;;;;;;;;4992396;28;20396;-68
2023/06/20 10:25:32;;;;;;;;;;;;;;;;;;5004949;28;20041;-67
2023/06/20 10:28:03;;;;;;;17.60;8.02;;;;;;;;;;5011667;28;19913;-68
2023/06/20 10:30:50;;;;;;;14.65;8.32;;;;;;;;;;5022698;28;20121;-68
2023/06/20 10:33:28;;;;;;;16.60;8.68;;;;;;;;;;5023249;28;20033;-68
2023/06/20 10:36:00;;;;;;;15.05;7.55;;;;;;;;;;5005407;28;20056;-66
2023/06/20 10:38:28;;;;;;;13.18;7.75;;;;;;;;;;5012332;28;20050;-69
2023/06/20 10:41:21;;;;;;;13.98;7.78;;;;;;;;;;5010825;28;20041;-69
2023/06/20 10:43:57;;;;;;;16.75;8.52;;;;;;;;;;5005691;28;20050;-67
2023/06/20 10:46:36;;;;;;;13.68;7.90;;;;;;;;;;5001015;28;20041;-66
2023/06/20 10:49:06;;;;;;;;;;;;;;;;;;5019873;28;20402;-66
2023/06/20 10:51:55;;;;;;;14.93;8.05;;;;;;;;;;5018791;28;19935;-66
2023/06/20 10:54:22;;;;;;;15.45;8.18;;;;;;;;;;4995321;28;20046;-67
2023/06/20 10:56:48;;;;;;;16.20;7.47;;;;;;;;;;5003403;28;20399;-66
2023/06/20 10:59:17;;;;;;;19.25;8.23;;;;;;;;;;5000982;28;20041;-65
2023/06/20 11:01:44;;;;;;;18.25;9.65;;;;;;;;;;5003104;28;20038;-66
2023/06/20 11:04:15;;;;;;;16.55;8.38;;;;;;;;;;4993916;28;20061;-66
2023/06/20 11:06:42;;;;;;;18.85;9.02;;;;;;;;;;4992665;28;20548;-66
2023/06/20 11:09:23;;;;;;;18.27;9.25;;;;;;;;;;4997574;28;20503;-66
2023/06/20 11:11:49;;;;;;;20.67;9.52;;;;;;;;;;5000136;28;20038;-65
2023/06/20 11:14:18;;;;;;;18.90;9.32;;;;;;;;;;4996577;28;20046;-66
2023/06/20 11:16:46;;;;;;;18.23;9.25;;;;;;;;;;5002971;28;20050;-66
2023/06/20 11:19:13;;;;;;;21.10;10.20;;;;;;;;;;5005949;28;20045;-66
2023/06/20 11:21:40;;;;;;;19.48;9.07;;;;;;;;;;5003745;28;20700;-66
2023/06/20 11:24:06;;;;;;;17.27;8.85;;;;;;;;;;5002129;28;20038;-65
2023/06/20 11:26:34;;;;;;;16.73;9.50;;;;;;;;;;5006594;28;20045;-70
2023/06/20 11:29:03;;;;;;;20.52;9.50;;;;;;;;;;5009624;28;20439;-69
2023/06/20 11:31:31;;;;;;;19.95;9.65;;;;;;;;;;5014880;28;20060;-69
2023/06/20 11:34:12;;;;;;;18.98;10.05;;;;;;;;;;5025917;28;20033;-67
2023/06/20 11:36:39;;;;;;;23.58;10.18;;;;;;;;;;5010193;28;20038;-69
2023/06/20 11:39:07;;;;;;;19.98;9.60;;;;;;;;;;5016462;28;20045;-69
2023/06/20 11:41:35;;;;;;;17.42;9.63;;;;;;;;;;5011862;28;20407;-69
2023/06/20 11:44:02;;;;;;;20.80;9.93;;;;;;;;;;5022689;28;20052;-69
2023/06/20 11:46:28;;;;;;;19.08;9.90;;;;;;;;;;4992357;28;20515;-69
2023/06/20 11:48:58;;;;;;;12.70;9.18;;;;;;;;;;5023675;28;20033;-69
2023/06/20 11:51:25;;;;;;;20.73;9.95;;;;;;;;;;5025965;28;20037;-69
2023/06/20 11:54:07;;;;;;;23.92;10.00;;;;;;;;;;5025958;28;20041;-69
2023/06/20 11:56:33;;;;;;;18.33;9.38;;;;;;;;;;5008637;28;20050;-69
2023/06/20 11:59:00;;;;;;;19.50;9.55;;;;;;;;;;4998947;28;20041;-69
2023/06/20 12:01:26;;;;;;;18.83;9.20;;;;;;;;;;5005387;28;20038;-69
2023/06/20 12:04:12;;;;;;;23.63;9.70;;;;;;;;;;5007416;28;20392;-69
2023/06/20 12:06:42;;;;;;;22.85;9.15;;;;;;;;;;5001122;28;20042;-68
2023/06/20 12:09:17;;;;;;;19.13;10.10;;;;;;;;;;4997429;28;20057;-69
2023/06/20 12:11:53;;;;;;;25.75;9.80;;;;;;;;;;4999100;28;20058;-69
2023/06/20 12:14:22;;;;;;;24.20;9.93;;;;;;;;;;4999051;28;20132;-69
2023/06/20 12:16:49;;;;;;;19.58;9.70;;;;;;;;;;4998739;28;20089;-69
2023/06/20 12:19:16;;;;;;;19.17;9.13;;;;;;;;;;5002101;28;20034;-69
2023/06/20 12:21:43;;;;;;;19.40;10.23;;;;;;;;;;5002302;28;20511;-69
2023/06/20 12:24:10;;;;;;;18.48;10.05;;;;;;;;;;4998614;28;20034;-65
2023/06/20 12:26:36;;;;;;;24.58;9.25;;;;;;;;;;5006986;28;20408;-68
2023/06/20 12:29:03;;;;;;;20.48;9.70;;;;;;;;;;5002008;28;20026;-67
2023/06/20 12:31:30;;;;;;;19.88;10.07;;;;;;;;;;4995279;28;20042;-68
2023/06/20 12:33:56;;;;;;;21.00;9.63;;;;;;;;;;5001890;28;20056;-68
2023/06/20 12:36:22;;;;;;;23.00;9.55;;;;;;;;;;5002445;28;20040;-68
2023/06/20 12:38:49;;;;;;;25.33;9.93;;;;;;;;;;5009819;28;20030;-68
2023/06/20 12:41:15;;;;;;;18.20;9.60;;;;;;;;;;5006833;28;20049;-68
2023/06/20 12:43:42;;;;;;;18.67;9.73;;;;;;;;;;5003106;28;20736;-68
2023/06/20 12:46:09;;;;;;;21.25;9.98;;;;;;;;;;5004247;28;20046;-68
2023/06/20 12:48:36;;;;;;;20.40;9.93;;;;;;;;;;5001241;28;20045;-69
2023/06/20 12:51:02;;;;;;;18.95;9.70;;;;;;;;;;5005285;28;20052;-69
2023/06/20 12:53:28;;;;;;;18.80;10.00;;;;;;;;;;5003998;28;20040;-68
2023/06/20 12:55:55;;;;;;;27.65;10.13;;;;;;;;;;5003812;28;20034;-68
2023/06/20 12:58:21;;;;;;;22.90;10.35;;;;;;;;;;5009125;28;20036;-68
2023/06/20 13:00:48;;;;;;;20.27;10.02;;;;;;;;;;4998079;28;20057;-69
2023/06/20 13:03:14;;;;;;;18.20;9.40;;;;;;;;;;5002691;28;20053;-67
2023/06/20 13:05:40;;;;;;;20.85;9.75;;;;;;;;;;5004176;28;20042;-67
2023/06/20 13:08:08;;;;;;;21.77;10.68;;;;;;;;;;4997308;28;20027;-68
2023/06/20 13:10:35;;;;;;;29.40;10.10;;;;;;;;;;4999078;28;20065;-69
2023/06/20 13:13:03;;;;;;;22.80;9.73;;;;;;;;;;5002215;28;21015;-68
2023/06/20 13:15:32;;;;;;;21.17;10.02;;;;;;;;;;5002619;28;20400;-69
2023/06/20 13:18:04;;;;;;;21.30;10.43;;;;;;;;;;5005805;28;20046;-68
2023/06/20 13:20:32;;;;;;;17.80;9.70;;;;;;;;;;5008710;28;20044;-68
2023/06/20 13:22:58;;;;;;;22.50;10.40;;;;;;;;;;4999784;28;20048;-68
2023/06/20 13:25:24;;;;;;;24.35;10.35;;;;;;;;;;4999618;28;20404;-69
2023/06/20 13:27:51;;;;;;;18.35;10.50;;;;;;;;;;4998944;28;20038;-68
2023/06/20 13:30:18;;;;;;;22.33;10.05;;;;;;;;;;5002131;28;20046;-68
2023/06/20 13:32:45;;;;;;;21.42;10.02;;;;;;;;;;5005796;28;20096;-68
2023/06/20 13:35:12;;;;;;;19.85;10.15;;;;;;;;;;5006170;28;20061;-67
2023/06/20 13:37:39;;;;;;;21.15;10.98;;;;;;;;;;5001022;28;20038;-68
2023/06/20 13:40:12;;;;;;;28.73;10.15;;;;;;;;;;5006097;28;20040;-69
2023/06/20 13:42:42;;;;;;;30.08;10.25;;;;;;;;;;4999660;28;20046;-68
2023/06/20 13:45:12;;;;;;;18.75;10.30;;;;;;;;;;5012619;28;20030;-68
2023/06/20 13:47:40;;;;;;;20.05;9.90;;;;;;;;;;4997115;28;20062;-67
2023/06/20 13:50:10;;;;;;;24.27;10.25;;;;;;;;;;4995347;28;20412;-68
2023/06/20 13:52:37;;;;;;;20.52;10.45;;;;;;;;;;4999197;28;20054;-68
2023/06/20 13:55:04;;;;;;;20.40;10.52;;;;;;;;;;4995046;28;20042;-69
2023/06/20 13:57:31;;;;;;;25.83;11.23;;;;;;;;;;4998795;28;20057;-68
2023/06/20 13:59:59;;;;;;;20.27;10.05;;;;;;;;;;4998059;28;20038;-67
2023/06/20 14:02:26;;;;;;;21.38;9.60;;;;;;;;;;5003502;28;20042;-67
2023/06/20 14:04:56;;;;;;;17.35;10.07;;;;;;;;;;5003292;28;20399;-67
2023/06/20 14:07:25;;;;;;;18.60;10.10;;;;;;;;;;5006570;28;20547;-68
2023/06/20 14:09:51;;;;;;;17.50;10.75;;;;;;;;;;5002355;28;20393;-68
2023/06/20 14:12:19;;;;;;;24.20;10.20;;;;;;;;;;5004746;28;20044;-68
2023/06/20 14:14:45;;;;;;;21.15;10.48;;;;;;;;;;5015083;28;20056;-68
2023/06/20 14:17:12;;;;;;;23.52;10.45;;;;;;;;;;4996474;28;20504;-68
2023/06/20 14:19:38;;;;;;;20.70;10.90;;;;;;;;;;4996442;28;20523;-70
2023/06/20 14:22:04;;;;;;;25.67;10.13;;;;;;;;;;4999828;28;20502;-67
2023/06/20 14:24:31;;;;;;;24.25;11.27;;;;;;;;;;5002768;28;20042;-67
2023/06/20 14:26:58;;;;;;;19.08;10.10;;;;;;;;;;4998325;28;20054;-68
2023/06/20 14:29:25;;;;;;;18.23;10.88;;;;;;;;;;4998900;28;20034;-69
2023/06/20 14:31:51;;;;;;;21.17;10.68;;;;;;;;;;4998000;28;20496;-69
2023/06/20 14:34:17;;;;;;;24.92;10.95;;;;;;;;;;5002324;28;20058;-68
2023/06/20 14:36:44;;;;;;;22.50;10.63;;;;;;;;;;5005468;28;22237;-68
2023/06/20 14:39:10;;;;;;;22.20;11.23;;;;;;;;;;5007221;28;20029;-69
2023/06/20 14:41:36;;;;;;;22.63;10.90;;;;;;;;;;5006310;28;20456;-69